Last 24 Hour KALB Observations

Last 24 hours of surface weather observations from the Albany County Airport. Observations taken by the National Weather Service.


		
KALB 180051Z 27011KT 10SM OVC047 04/M03 A3022 RMK AO2 SLP236 T00391033=
KALB 180151Z 28008KT 10SM BKN036 OVC049 04/M03 A3024 RMK AO2 SLP242 T00391033=
KALB 180251Z 29009KT 10SM OVC032 03/M03 A3025 RMK AO2 SLP247 T00331033 53013=
KALB 180351Z 28006KT 10SM FEW030 OVC050 03/M03 A3027 RMK AO2 SLP252 T00281028=
KALB 180451Z 30011KT 10SM SCT028 BKN041 OVC050 03/M03 A3028 RMK AO2 SLP256
 T00281033 400670028=
KALB 180551Z 26011KT 10SM SCT055 02/M06 A3030 RMK AO2 SLP262 4/001 T00221061
 10039 20022 53015=
KALB 180651Z 28012KT 10SM SCT048 01/M06 A3032 RMK AO2 SLP268 T00111061=
KALB 180751Z 29010KT 10SM FEW045 01/M07 A3034 RMK AO2 SLP275 T00061072=
KALB 180851Z 28009KT 10SM FEW150 M01/M07 A3034 RMK AO2 SLP276 T10061072 51014=
KALB 180951Z 28010KT 10SM SCT150 M01/M07 A3034 RMK AO2 SLP279 T10111072=
KALB 181051Z 27006KT 10SM FEW150 SCT210 SCT240 M01/M07 A3036 RMK AO2 SLP286
 T10111072=
KALB 181151Z 29008KT 10SM BKN140 BKN210 OVC240 M01/M07 A3038 RMK AO2 SLP291
 4/001 OCNL BINOVC T10111067 10022 21011 53014=
KALB 181251Z 28003KT 10SM BKN130 BKN210 OVC240 M01/M06 A3039 RMK AO2 SLP296
 BINOVC T10061061=
KALB 181351Z 00000KT 10SM SCT120 BKN150 OVC250 00/M06 A3039 RMK AO2 SLP295
 T00001061=
KALB 181451Z 00000KT 10SM BKN100 OVC150 01/M06 A3039 RMK AO2 SLP293 T00061061
 50003=
KALB 181551Z 00000KT 10SM FEW035 BKN100 OVC150 01/M06 A3038 RMK AO2 SLP291
 T00111061=
KALB 181651Z 00000KT 10SM OVC090 01/M07 A3036 RMK AO2 SLP283 T00111067=
KALB 181751Z 15003KT 10SM OVC080 01/M07 A3034 RMK AO2 SLP278 T00111072 10017
 21011 58016=
KALB 181751Z COR 15003KT 10SM OVC080 01/M07 A3034 RMK AO2 SLP278 4/001
 T00111072 10017 21011 58016=
KALB 181751Z 15003KT 10SM OVC080 01/M07 A3034 RMK AO2 SLP278 T00111072 10017
 21011 58016=
KALB 181751Z COR 15003KT 10SM OVC080 01/M07 A3034 RMK AO2 SLP278 4/001
 T00111072 10017 21011 58016=
KALB 181851Z 00000KT 10SM BKN050 OVC065 02/M08 A3032 RMK AO2 SLP271 VIRGA OHD
 T00171083=
KALB 181951Z 13003KT 10SM BKN048 OVC065 01/M07 A3032 RMK AO2 SLP272 VIRGA OHD
 T00111067=
KALB 182051Z 06003KT 9SM -SN BKN060 OVC090 01/M04 A3031 RMK AO2 SNB1957 SLP268
 PCPN VRY LGT P0000 60000 T00061044 56010=
KALB 182151Z 02003KT 9SM -SN SCT060 OVC090 01/M04 A3030 RMK AO2 SLP265 PCPN VRY
 LGT P0000 T00061044=
KALB 182251Z 03003KT 9SM -SN BKN050 OVC090 01/M04 A3030 RMK AO2 SLP263 P0000
 T00061044=
KALB 182325Z 00000KT 2 1/2SM -SN OVC036 00/M04 A3029 RMK AO2 P0000 T00001039=
KALB 182325Z 00000KT 2 1/2SM -SN OVC036 00/M04 A3029=
KALB 182351Z 00000KT 2 1/2SM -SN OVC036 00/M03 A3028 RMK AO2 SLP259 4/001 P0000
 60000 T00001033 10017 20000 58009=
KALB 190051Z 00000KT 2 1/2SM -SN OVC042 M01/M03 A3027 RMK AO2 SLP253 P0000
 T10061028=